Kure, Japan
Current Conditions -  °F | °C
As of 7:55 PM on Friday 24 Oct 2014 (Local Time) from RJOI Reporting Station
Few Clouds Few Clouds  
Wind Chill: 61°   Ceiling: Unl
Heat Index: 61°   Visibility: 6mi
Dew Point: 53°   Wind: 6mph
Humidity: 75%   Direction: 300°WNW
Pressure: 30.14"   Gusts: NA
Location:  34.25°N, 132.56°E
Report Text: RJOI 241055Z 30005KT 9999 FEW025 16/12 A3014 RMK SLP206 T01610117
Loading
Personal Weather Stations






























Interactive Weather Map
Tropical Storm Tracking
New forecast layout! Learn more

10-Day Weather Forecast

Advertisements
Track Severe Weather on mobile